createdAt,value
2017-07-18T00:02:16.489Z,5.20
2017-07-18T00:04:45.947Z,4.73
2017-07-18T00:07:15.389Z,4.93
2017-07-18T00:09:44.838Z,4.60
2017-07-18T00:12:14.289Z,5.30
2017-07-18T00:14:43.718Z,5.70
2017-07-18T00:17:13.152Z,5.30
2017-07-18T00:19:42.600Z,5.13
2017-07-18T00:22:12.053Z,5.93
2017-07-18T00:24:41.494Z,4.90
2017-07-18T00:27:10.959Z,5.50
2017-07-18T00:29:40.396Z,5.37
2017-07-18T00:32:09.849Z,5.17
2017-07-18T00:34:39.310Z,5.50
2017-07-18T00:37:08.762Z,5.73
2017-07-18T00:39:38.214Z,5.13
2017-07-18T00:42:07.665Z,5.17
2017-07-18T00:44:37.125Z,5.20
2017-07-18T00:47:06.861Z,5.55
2017-07-18T00:49:36.581Z,5.55
2017-07-18T00:52:06.036Z,6.13
2017-07-18T00:54:35.476Z,5.60
2017-07-18T00:57:05.212Z,6.25
2017-07-18T00:59:34.945Z,5.35
2017-07-18T01:02:04.401Z,5.03
2017-07-18T01:04:33.871Z,4.97
2017-07-18T01:07:03.301Z,5.33
2017-07-18T01:09:32.773Z,4.90
2017-07-18T01:12:02.216Z,5.20
2017-07-18T01:14:31.670Z,5.30
2017-07-18T01:17:01.112Z,5.23
2017-07-18T01:19:30.564Z,4.83
2017-07-18T01:22:00.287Z,5.20
2017-07-18T01:24:30.023Z,4.90
2017-07-18T01:26:59.459Z,6.20
2017-07-18T01:29:29.180Z,5.12
2017-07-18T01:31:58.909Z,5.20
2017-07-18T01:34:28.645Z,5.25
2017-07-18T01:36:58.381Z,5.32
2017-07-18T01:39:28.141Z,5.18
2017-07-18T01:41:57.895Z,5.43
2017-07-18T01:44:27.645Z,6.50
2017-07-18T01:46:57.371Z,5.95
2017-07-18T01:49:27.126Z,5.78
2017-07-18T01:51:56.570Z,6.33
2017-07-18T01:54:26.307Z,5.65
2017-07-18T01:56:56.034Z,6.05
2017-07-18T01:59:25.749Z,7.30
2017-07-18T02:01:55.133Z,6.18
2017-07-18T02:04:24.866Z,5.90
2017-07-18T02:06:54.255Z,5.53
2017-07-18T02:09:23.982Z,6.15
2017-07-18T02:11:53.719Z,4.87
2017-07-18T02:14:23.459Z,5.47
2017-07-18T02:16:53.198Z,5.75
2017-07-18T02:19:22.931Z,6.05
2017-07-18T02:21:52.653Z,6.10
2017-07-18T02:24:22.392Z,5.80
2017-07-18T02:26:52.126Z,5.25
2017-07-18T02:29:21.848Z,6.45
2017-07-18T02:31:51.597Z,6.53
2017-07-18T02:34:21.335Z,5.60
2017-07-18T02:36:51.113Z,5.80
2017-07-18T02:39:20.954Z,6.10
2017-07-18T02:41:50.684Z,5.80
2017-07-18T02:44:20.422Z,5.97
2017-07-18T02:46:50.170Z,5.65
2017-07-18T02:49:19.929Z,6.50
2017-07-18T02:51:49.653Z,5.37
2017-07-18T02:54:19.395Z,6.68
2017-07-18T02:56:49.129Z,5.90
2017-07-18T02:59:18.875Z,6.03
2017-07-18T03:01:48.601Z,5.80
2017-07-18T03:04:18.322Z,6.18
2017-07-18T03:06:48.049Z,6.80
2017-07-18T03:09:17.766Z,6.25
2017-07-18T03:11:47.544Z,6.57
2017-07-18T03:14:17.269Z,6.43
2017-07-18T03:16:46.999Z,5.20
2017-07-18T03:19:16.724Z,5.45
2017-07-18T03:21:46.474Z,6.60
2017-07-18T03:24:27.287Z,5.90
2017-07-18T03:26:56.875Z,6.03
2017-07-18T03:29:26.593Z,6.10
2017-07-18T03:31:56.324Z,6.80
2017-07-18T03:34:26.057Z,6.45
2017-07-18T03:36:55.794Z,6.00
2017-07-18T03:39:25.546Z,5.70
2017-07-18T03:41:55.270Z,6.87
2017-07-18T03:44:25.030Z,5.90
2017-07-18T03:46:54.757Z,6.55
2017-07-18T03:49:24.487Z,5.80
2017-07-18T03:51:54.244Z,5.85
2017-07-18T03:54:23.981Z,6.20
2017-07-18T03:56:53.732Z,6.40
2017-07-18T03:59:23.469Z,6.55
2017-07-18T04:01:53.194Z,6.72
2017-07-18T04:04:22.936Z,6.32
2017-07-18T04:06:52.754Z,7.03
2017-07-18T04:09:22.499Z,6.62
2017-07-18T04:11:52.255Z,5.80
2017-07-18T04:14:21.975Z,6.15
2017-07-18T04:16:51.699Z,6.12
2017-07-18T04:19:21.521Z,7.40
2017-07-18T04:21:51.263Z,8.80
2017-07-18T04:24:20.990Z,6.65
2017-07-18T04:26:50.733Z,6.75
2017-07-18T04:29:20.503Z,6.55
2017-07-18T04:31:50.219Z,6.70
2017-07-18T04:34:20.080Z,6.15
2017-07-18T04:36:49.800Z,6.40
2017-07-18T04:39:19.532Z,6.05
2017-07-18T04:41:49.263Z,6.75
2017-07-18T04:44:19.021Z,6.25
2017-07-18T04:46:48.749Z,6.70
2017-07-18T04:49:18.485Z,6.43
2017-07-18T04:51:48.224Z,5.78
2017-07-18T04:54:17.981Z,6.15
2017-07-18T04:56:47.426Z,5.63
2017-07-18T04:59:17.173Z,7.25
2017-07-18T05:01:46.618Z,5.90
2017-07-18T05:04:16.083Z,6.20
2017-07-18T05:06:45.537Z,6.63
2017-07-18T05:09:14.992Z,8.53
2017-07-18T05:11:44.444Z,7.77
2017-07-18T05:14:13.903Z,8.10
2017-07-18T05:16:43.358Z,8.50
2017-07-18T05:19:12.808Z,8.20
2017-07-18T05:21:42.261Z,8.37
2017-07-18T05:24:11.714Z,8.30
2017-07-18T05:26:41.150Z,8.43
2017-07-18T05:29:10.616Z,11.97
2017-07-18T05:31:40.062Z,9.70
2017-07-18T05:34:09.515Z,10.03
2017-07-18T05:36:38.968Z,9.33
2017-07-18T05:39:08.422Z,10.27
2017-07-18T05:41:37.876Z,9.73
2017-07-18T05:44:07.334Z,9.70
2017-07-18T05:46:36.777Z,11.40
2017-07-18T05:49:06.233Z,8.93
2017-07-18T05:51:35.684Z,9.43
2017-07-18T05:54:05.130Z,10.20
2017-07-18T05:56:34.588Z,11.87
2017-07-18T05:59:04.043Z,12.23
2017-07-18T06:01:33.520Z,11.57
2017-07-18T06:04:02.958Z,12.20
2017-07-18T06:06:32.418Z,13.03
2017-07-18T06:09:01.876Z,11.70
2017-07-18T06:11:31.385Z,12.13
2017-07-18T06:14:00.861Z,13.50
2017-07-18T06:16:30.334Z,14.23
2017-07-18T06:18:59.802Z,13.93
2017-07-18T06:21:29.258Z,17.70
2017-07-18T06:23:58.720Z,16.97
2017-07-18T06:26:28.164Z,17.43
2017-07-18T06:28:57.633Z,20.70
2017-07-18T06:31:27.110Z,16.47
2017-07-18T06:33:56.570Z,19.30
2017-07-18T06:36:26.029Z,21.70
2017-07-18T06:38:57.121Z,18.97
2017-07-18T06:41:26.581Z,18.93
2017-07-18T06:43:56.091Z,19.33
2017-07-18T06:46:25.548Z,18.07
2017-07-18T06:48:55.015Z,18.07
2017-07-18T06:51:24.457Z,19.40
2017-07-18T06:53:53.940Z,17.87
2017-07-18T06:56:23.411Z,17.30
2017-07-18T06:58:52.861Z,16.37
2017-07-18T07:01:22.300Z,16.73
2017-07-18T07:03:51.760Z,15.63
2017-07-18T07:06:21.381Z,15.47
2017-07-18T07:08:51.505Z,14.33
2017-07-18T07:11:20.961Z,16.80
2017-07-18T07:13:50.307Z,15.27
2017-07-18T07:16:19.761Z,12.43
2017-07-18T07:18:49.472Z,10.83
2017-07-18T07:21:18.976Z,9.70
2017-07-18T07:23:48.428Z,9.10
2017-07-18T07:26:17.871Z,9.40
2017-07-18T07:28:47.336Z,8.80
2017-07-18T07:31:16.779Z,10.20
2017-07-18T07:33:46.234Z,11.17
2017-07-18T07:36:15.686Z,8.23
2017-07-18T07:38:45.149Z,7.47
2017-07-18T07:41:14.632Z,6.60
2017-07-18T07:43:44.068Z,6.70
2017-07-18T07:46:13.514Z,6.87
2017-07-18T07:48:42.954Z,5.67
2017-07-18T07:51:12.438Z,5.63
2017-07-18T07:53:41.873Z,4.80
2017-07-18T07:56:11.328Z,5.43
2017-07-18T07:58:41.478Z,4.87
2017-07-18T08:01:10.911Z,5.60
2017-07-18T08:03:40.353Z,4.77
2017-07-18T08:06:09.812Z,5.37
2017-07-18T08:08:39.253Z,5.00
2017-07-18T08:11:08.692Z,5.83
2017-07-18T08:13:38.161Z,5.30
2017-07-18T08:16:07.606Z,5.60
2017-07-18T08:18:37.057Z,4.60
2017-07-18T08:21:06.493Z,5.30
2017-07-18T08:23:35.945Z,5.40
2017-07-18T08:26:05.396Z,4.47
2017-07-18T08:28:34.849Z,4.90
2017-07-18T08:31:04.308Z,5.40
2017-07-18T08:33:36.655Z,4.90
2017-07-18T08:36:10.842Z,4.70
2017-07-18T08:38:41.240Z,4.97
2017-07-18T08:41:12.929Z,5.43
2017-07-18T08:43:44.528Z,6.40
2017-07-18T08:46:15.103Z,4.63
2017-07-18T08:48:46.909Z,5.67
2017-07-18T08:51:18.749Z,4.47
2017-07-18T08:53:51.020Z,4.47
2017-07-18T08:56:22.961Z,4.30
2017-07-18T08:58:54.340Z,5.20
2017-07-18T09:01:26.395Z,4.20
2017-07-18T09:03:58.544Z,4.63
2017-07-18T09:06:31.149Z,4.10
2017-07-18T09:09:04.031Z,4.17
2017-07-18T09:11:37.176Z,3.80
2017-07-18T09:14:10.313Z,4.23
2017-07-18T09:16:43.801Z,4.00
2017-07-18T09:19:17.285Z,3.87
2017-07-18T09:21:50.407Z,3.67
2017-07-18T09:24:25.936Z,3.70
2017-07-18T09:26:59.593Z,3.83
2017-07-18T09:29:32.726Z,3.13
2017-07-18T09:32:05.957Z,3.80
2017-07-18T09:34:38.830Z,3.80
2017-07-18T09:37:11.461Z,3.23
2017-07-18T09:39:44.263Z,3.07
2017-07-18T09:42:15.663Z,3.10
2017-07-18T09:44:45.137Z,3.20
2017-07-18T09:47:14.697Z,3.47
2017-07-18T09:49:44.124Z,3.70
2017-07-18T09:52:13.569Z,3.20
2017-07-18T09:54:43.007Z,2.93
2017-07-18T09:57:12.556Z,2.90
2017-07-18T09:59:42.013Z,2.83
2017-07-18T10:02:11.464Z,2.90
2017-07-18T10:04:40.899Z,3.30
2017-07-18T10:07:10.351Z,3.20
2017-07-18T10:09:39.819Z,3.00
2017-07-18T10:12:09.256Z,2.33
2017-07-18T10:14:38.708Z,2.97
2017-07-18T10:17:08.165Z,2.80
2017-07-18T10:19:37.633Z,3.07
2017-07-18T10:22:07.128Z,2.40
2017-07-18T10:24:36.585Z,2.47
2017-07-18T10:27:06.024Z,2.83
2017-07-18T10:29:36.342Z,2.23
2017-07-18T10:32:05.788Z,2.73
2017-07-18T10:34:35.242Z,3.13
2017-07-18T10:37:04.697Z,2.77
2017-07-18T10:39:34.136Z,3.00
2017-07-18T10:42:03.576Z,3.13
2017-07-18T10:44:33.033Z,2.67
2017-07-18T10:47:02.317Z,2.73
2017-07-18T10:49:31.770Z,2.50
2017-07-18T10:52:01.230Z,2.77
2017-07-18T10:54:30.673Z,2.83
2017-07-18T10:57:00.125Z,2.70
2017-07-18T10:59:29.581Z,2.70
2017-07-18T11:01:59.034Z,2.50
2017-07-18T11:04:28.512Z,2.43
2017-07-18T11:06:57.979Z,2.30
2017-07-18T11:09:27.404Z,2.37
2017-07-18T11:11:56.918Z,2.50
2017-07-18T11:14:26.358Z,2.63
2017-07-18T11:16:55.797Z,2.57
2017-07-18T11:19:25.237Z,2.57
2017-07-18T11:21:54.711Z,2.63
2017-07-18T11:24:24.126Z,2.93
2017-07-18T11:26:53.600Z,2.60
2017-07-18T11:29:23.056Z,2.53
2017-07-18T11:31:52.545Z,2.87
2017-07-18T11:34:22.136Z,2.37
2017-07-18T11:36:51.673Z,2.97
2017-07-18T11:39:21.131Z,2.40
2017-07-18T11:41:50.570Z,2.53
2017-07-18T11:44:20.009Z,2.63
2017-07-18T11:46:49.464Z,2.37
2017-07-18T11:49:18.937Z,2.53
2017-07-18T11:51:48.390Z,2.30
2017-07-18T11:54:17.836Z,2.77
2017-07-18T11:56:47.296Z,2.40
2017-07-18T11:59:16.743Z,2.80
2017-07-18T12:01:46.194Z,2.67
2017-07-18T12:04:15.653Z,2.40
2017-07-18T12:06:45.101Z,2.60
2017-07-18T12:09:15.494Z,2.53
2017-07-18T12:11:44.957Z,2.57
2017-07-18T12:14:14.412Z,2.20
2017-07-18T12:16:43.852Z,2.00
2017-07-18T12:19:13.116Z,2.23
2017-07-18T12:21:42.560Z,2.37
2017-07-18T12:24:12.005Z,1.90
2017-07-18T12:26:41.436Z,2.60
2017-07-18T12:29:10.991Z,2.20
2017-07-18T12:31:40.441Z,2.13
2017-07-18T12:34:09.887Z,2.00
2017-07-18T12:36:39.348Z,2.17
2017-07-18T12:39:08.809Z,2.13
2017-07-18T12:41:38.498Z,2.20
2017-07-18T12:44:07.945Z,2.73
2017-07-18T12:46:37.538Z,2.27
2017-07-18T12:49:07.059Z,2.00
2017-07-18T12:51:36.588Z,1.87
2017-07-18T12:54:06.047Z,1.80
2017-07-18T12:56:35.489Z,1.90
2017-07-18T12:59:04.922Z,1.90
2017-07-18T13:01:34.362Z,1.70
2017-07-18T13:04:03.812Z,1.70
2017-07-18T13:06:33.261Z,1.60
2017-07-18T13:09:02.713Z,1.50
2017-07-18T13:11:31.997Z,1.70
2017-07-18T13:14:01.441Z,1.50
2017-07-18T13:16:30.885Z,1.70
2017-07-18T13:19:00.328Z,1.40
2017-07-18T13:21:29.773Z,1.50
2017-07-18T13:23:59.217Z,1.47
2017-07-18T13:26:28.673Z,1.30
2017-07-18T13:28:58.108Z,1.67
2017-07-18T13:31:27.580Z,1.60
2017-07-18T13:33:57.033Z,1.60
2017-07-18T13:36:26.485Z,1.20
2017-07-18T13:38:55.925Z,1.63
2017-07-18T13:41:25.377Z,1.47
2017-07-18T13:43:54.836Z,1.70
2017-07-18T13:46:24.286Z,1.23
2017-07-18T13:48:53.582Z,1.40
2017-07-18T13:51:23.021Z,1.60
2017-07-18T13:53:52.482Z,1.50
2017-07-18T13:56:21.933Z,1.53
2017-07-18T13:58:51.374Z,1.60
2017-07-18T14:01:20.833Z,1.40
2017-07-18T14:03:50.273Z,0.93
2017-07-18T14:06:19.867Z,1.20
2017-07-18T14:08:49.310Z,1.43
2017-07-18T14:11:18.747Z,1.33
2017-07-18T14:13:48.192Z,1.10
2017-07-18T14:16:17.632Z,1.20
2017-07-18T14:18:47.097Z,1.10
2017-07-18T14:21:16.549Z,1.40
2017-07-18T14:23:46.034Z,1.17
2017-07-18T14:26:15.482Z,1.20
2017-07-18T14:28:44.920Z,1.13
2017-07-18T14:31:14.360Z,1.20
2017-07-18T14:33:43.826Z,1.40
2017-07-18T14:36:13.255Z,1.13
2017-07-18T14:38:43.564Z,1.13
2017-07-18T14:41:13.113Z,1.10
2017-07-18T14:43:43.234Z,1.30
2017-07-18T14:46:12.694Z,1.20
2017-07-18T14:48:42.122Z,1.30
2017-07-18T14:51:11.558Z,1.37
2017-07-18T14:53:40.997Z,1.10
2017-07-18T14:56:10.432Z,1.03
2017-07-18T14:58:39.881Z,1.70
2017-07-18T15:01:09.335Z,1.30
2017-07-18T15:03:38.788Z,1.00
2017-07-18T15:06:08.241Z,1.20
2017-07-18T15:08:37.681Z,1.10
2017-07-18T15:11:07.140Z,1.20
2017-07-18T15:13:36.737Z,1.30
2017-07-18T15:16:06.186Z,1.20
2017-07-18T15:18:35.629Z,1.30
2017-07-18T15:21:05.078Z,1.17
2017-07-18T15:23:34.526Z,1.33
2017-07-18T15:26:03.968Z,1.20
2017-07-18T15:28:33.409Z,1.20
2017-07-18T15:31:02.864Z,1.23
2017-07-18T15:33:32.321Z,1.10
2017-07-18T15:36:01.780Z,1.20
2017-07-18T15:38:31.225Z,1.47
2017-07-18T15:41:00.661Z,1.27
2017-07-18T15:43:30.890Z,1.00
2017-07-18T15:46:00.335Z,1.10
2017-07-18T15:48:29.790Z,1.30
2017-07-18T15:50:59.243Z,1.47
2017-07-18T15:53:28.681Z,1.33
2017-07-18T15:55:58.129Z,1.50
2017-07-18T15:58:27.617Z,1.70
2017-07-18T16:00:57.118Z,1.10
2017-07-18T16:03:26.692Z,1.40
2017-07-18T16:05:56.132Z,1.30
2017-07-18T16:08:25.584Z,1.60
2017-07-18T16:10:55.018Z,1.40
2017-07-18T16:13:24.473Z,1.30
2017-07-18T16:15:53.939Z,1.10
2017-07-18T16:18:23.428Z,1.17
2017-07-18T16:20:53.516Z,1.40
2017-07-18T16:23:23.194Z,1.27
2017-07-18T16:25:52.729Z,1.40
2017-07-18T16:28:22.169Z,1.10
2017-07-18T16:30:51.610Z,1.23
2017-07-18T16:33:21.095Z,1.00
2017-07-18T16:35:50.544Z,1.30
2017-07-18T16:38:19.989Z,1.20
2017-07-18T16:40:49.441Z,1.20
2017-07-18T16:43:18.925Z,1.60
2017-07-18T16:45:48.362Z,1.47
2017-07-18T16:48:17.820Z,1.37
2017-07-18T16:50:47.289Z,1.10
2017-07-18T16:53:16.737Z,1.20
2017-07-18T16:55:46.207Z,1.37
2017-07-18T16:58:15.661Z,1.53
2017-07-18T17:00:45.140Z,1.50
2017-07-18T17:03:14.590Z,1.40
2017-07-18T17:05:44.112Z,1.20
2017-07-18T17:08:13.572Z,1.43
2017-07-18T17:10:43.019Z,1.23
2017-07-18T17:13:12.489Z,1.23
2017-07-18T17:15:41.924Z,1.43
2017-07-18T17:18:11.371Z,1.37
2017-07-18T17:20:40.818Z,1.43
2017-07-18T17:23:10.260Z,1.20
2017-07-18T17:25:39.710Z,1.10
2017-07-18T17:28:09.165Z,1.60
2017-07-18T17:30:38.689Z,1.80
2017-07-18T17:33:08.273Z,1.80
2017-07-18T17:35:37.732Z,1.77
2017-07-18T17:38:07.191Z,1.90
2017-07-18T17:40:36.632Z,1.70
2017-07-18T17:43:06.082Z,1.93
2017-07-18T17:45:35.546Z,2.07
2017-07-18T17:48:05.002Z,4.20
2017-07-18T17:50:34.458Z,5.17
2017-07-18T17:53:03.949Z,2.70
2017-07-18T17:55:33.420Z,6.30
2017-07-18T17:58:02.852Z,8.07
2017-07-18T18:00:32.330Z,10.30
2017-07-18T18:03:01.777Z,3.30
2017-07-18T18:05:31.310Z,6.17
2017-07-18T18:08:00.742Z,5.47
2017-07-18T18:10:30.185Z,2.80
2017-07-18T18:12:59.628Z,3.50
2017-07-18T18:15:29.077Z,2.90
2017-07-18T18:17:58.526Z,4.70
2017-07-18T18:20:27.987Z,5.13
2017-07-18T18:22:57.432Z,3.20
2017-07-18T18:25:27.837Z,2.70
2017-07-18T18:27:57.278Z,3.20
2017-07-18T18:30:26.736Z,2.40
2017-07-18T18:32:56.170Z,2.90
2017-07-18T18:35:25.656Z,2.90
2017-07-18T18:37:55.122Z,2.93
2017-07-18T18:40:24.586Z,4.67
2017-07-18T18:42:54.174Z,3.37
2017-07-18T18:45:23.680Z,2.90
2017-07-18T18:47:53.127Z,3.30
2017-07-18T18:50:22.619Z,3.73
2017-07-18T18:52:52.068Z,3.00
2017-07-18T18:55:21.561Z,3.20
2017-07-18T18:57:51.183Z,3.27
2017-07-18T19:00:20.656Z,3.30
2017-07-18T19:02:50.124Z,3.87
2017-07-18T19:05:19.618Z,3.47
2017-07-18T19:07:49.123Z,4.43
2017-07-18T19:10:18.633Z,3.40
2017-07-18T19:12:49.010Z,3.40
2017-07-18T19:15:18.507Z,4.00
2017-07-18T19:17:47.966Z,3.20
2017-07-18T19:20:17.480Z,3.53
2017-07-18T19:22:46.920Z,3.30
2017-07-18T19:25:16.457Z,3.80
2017-07-18T19:27:45.916Z,3.90
2017-07-18T19:30:15.414Z,3.87
2017-07-18T19:32:44.862Z,4.07
2017-07-18T19:35:14.415Z,3.83
2017-07-18T19:37:43.872Z,3.90
2017-07-18T19:40:13.370Z,4.00
2017-07-18T19:42:42.810Z,4.20
2017-07-18T19:45:12.325Z,4.57
2017-07-18T19:47:41.845Z,4.43
2017-07-18T19:50:11.419Z,4.90
2017-07-18T19:52:40.930Z,4.17
2017-07-18T19:55:10.422Z,4.47
2017-07-18T19:57:39.878Z,6.13
2017-07-18T20:00:09.377Z,6.10
2017-07-18T20:02:38.819Z,5.50
2017-07-18T20:05:08.338Z,4.00
2017-07-18T20:07:37.765Z,5.03
2017-07-18T20:10:07.312Z,3.73
2017-07-18T20:12:36.754Z,3.90
2017-07-18T20:15:06.265Z,4.70
2017-07-18T20:17:35.724Z,4.70
2017-07-18T20:20:05.238Z,5.60
2017-07-18T20:22:34.716Z,5.73
2017-07-18T20:25:04.204Z,6.87
2017-07-18T20:27:33.650Z,10.33
2017-07-18T20:30:03.155Z,7.53
2017-07-18T20:32:32.597Z,5.53
2017-07-18T20:35:02.158Z,5.23
2017-07-18T20:37:31.609Z,5.63
2017-07-18T20:40:01.075Z,5.00
2017-07-18T20:42:30.618Z,6.03
2017-07-18T20:45:00.093Z,5.50
2017-07-18T20:47:29.552Z,5.47
2017-07-18T20:49:58.989Z,4.50
2017-07-18T20:52:28.484Z,4.50
2017-07-18T20:54:57.936Z,5.90
2017-07-18T20:57:27.402Z,8.57
2017-07-18T20:59:56.839Z,7.70
2017-07-18T21:02:26.277Z,5.73
2017-07-18T21:04:55.738Z,6.73
2017-07-18T21:07:25.201Z,5.87
2017-07-18T21:09:54.658Z,5.07
2017-07-18T21:12:24.112Z,4.73
2017-07-18T21:14:53.606Z,5.27
2017-07-18T21:17:23.137Z,4.77
2017-07-18T21:19:52.742Z,5.30
2017-07-18T21:22:22.181Z,6.50
2017-07-18T21:24:51.633Z,4.83
2017-07-18T21:27:21.103Z,6.93
2017-07-18T21:29:50.579Z,5.77
2017-07-18T21:32:20.011Z,5.43
2017-07-18T21:34:49.675Z,5.40
2017-07-18T21:37:19.134Z,6.17
2017-07-18T21:39:48.660Z,6.13
2017-07-18T21:42:18.229Z,6.10
2017-07-18T21:44:48.424Z,6.07
2017-07-18T21:47:17.883Z,6.20
2017-07-18T21:49:47.622Z,5.40
2017-07-18T21:52:17.147Z,5.80
2017-07-18T21:54:47.124Z,5.90
2017-07-18T21:57:17.072Z,6.00
2017-07-18T21:59:46.672Z,5.50
2017-07-18T22:02:16.195Z,5.60
2017-07-18T22:04:45.629Z,5.50
2017-07-18T22:07:15.157Z,4.67
2017-07-18T22:09:44.673Z,5.00
2017-07-18T22:12:14.275Z,5.10
2017-07-18T22:14:43.859Z,5.53
2017-07-18T22:17:13.418Z,5.60
2017-07-18T22:19:42.932Z,5.50
2017-07-18T22:22:12.454Z,7.33
2017-07-18T22:24:41.996Z,5.63
2017-07-18T22:27:11.487Z,5.67
2017-07-18T22:29:40.953Z,5.63
2017-07-18T22:32:10.394Z,5.27
2017-07-18T22:34:39.851Z,4.83
2017-07-18T22:37:10.279Z,5.30
2017-07-18T22:39:39.718Z,5.40
2017-07-18T22:42:09.170Z,5.90
2017-07-18T22:44:38.629Z,6.30
2017-07-18T22:47:08.077Z,5.90
2017-07-18T22:49:37.352Z,5.63
2017-07-18T22:52:06.804Z,5.90
2017-07-18T22:54:36.256Z,5.27
2017-07-18T22:57:05.718Z,5.20
2017-07-18T22:59:35.183Z,6.00
2017-07-18T23:02:04.640Z,6.13
2017-07-18T23:04:34.067Z,6.07
2017-07-18T23:07:03.521Z,6.30
2017-07-18T23:09:32.962Z,6.03
2017-07-18T23:12:02.405Z,5.50
2017-07-18T23:14:31.850Z,5.37
2017-07-18T23:17:01.317Z,5.40
2017-07-18T23:19:30.777Z,6.27
2017-07-18T23:22:00.213Z,6.07
2017-07-18T23:24:29.694Z,5.50
2017-07-18T23:26:59.833Z,6.00
2017-07-18T23:29:29.274Z,5.83
2017-07-18T23:31:58.719Z,6.60
2017-07-18T23:34:28.168Z,6.13
2017-07-18T23:36:57.608Z,5.40
2017-07-18T23:39:27.045Z,6.30
2017-07-18T23:41:56.541Z,5.60
2017-07-18T23:44:25.981Z,7.57
2017-07-18T23:46:55.425Z,7.20
2017-07-18T23:49:25.577Z,6.43
2017-07-18T23:51:55.038Z,7.03
2017-07-18T23:54:24.468Z,6.40
2017-07-18T23:56:53.916Z,6.17
2017-07-18T23:59:23.369Z,5.60
